Time,TemperatureF,DewpointF,PressureIn,WindDirection,WindDirectionDegrees,WindSpeedMPH,WindSpeedGustMPH,Humidity,HourlyPrecipIn,Conditions,Clouds,dailyrainin,SoftwareType,DateUTC
2013-12-06 00:02:00,41.8,38.5,29.97,North,354,5.8,5.8,88,0.00,RA,,0.00,WeatherDisplay:10.37,2013-12-06 06:02:00,
2013-12-06 00:07:00,41.7,38.7,29.97,North,1,12.7,12.7,89,0.00,RA,,0.00,WeatherDisplay:10.37,2013-12-06 06:07:00,
2013-12-06 00:12:00,41.5,38.5,29.97,NNE,23,11.5,11.5,89,0.00,CLR,,0.00,WeatherDisplay:10.37,2013-12-06 06:12:00,
2013-12-06 00:17:00,41.4,38.4,29.97,NNE,19,15.0,15.0,89,0.00,CLR,,0.00,WeatherDisplay:10.37,2013-12-06 06:17:00,
2013-12-06 00:22:00,41.1,38.1,29.97,North,359,12.7,12.7,89,0.00,CLR,,0.00,WeatherDisplay:10.37,2013-12-06 06:22:00,
2013-12-06 00:27:00,40.7,37.7,29.97,North,356,11.5,11.5,89,0.00,CLR,,0.00,WeatherDisplay:10.37,2013-12-06 06:27:00,
2013-12-06 00:32:00,40.5,37.5,29.97,North,1,6.9,6.9,89,0.00,CLR,,0.00,WeatherDisplay:10.37,2013-12-06 06:32:00,
2013-12-06 00:37:00,40.5,37.5,29.97,North,359,11.5,11.5,89,0.00,CLR,,0.00,WeatherDisplay:10.37,2013-12-06 06:37:00,
2013-12-06 00:42:00,40.5,37.5,29.97,NNE,15,9.2,9.2,89,0.00,CLR,,0.00,WeatherDisplay:10.37,2013-12-06 06:42:00,
2013-12-06 00:47:00,40.4,37.4,29.97,NNW,332,5.8,5.8,89,0.00,CLR,,0.00,WeatherDisplay:10.37,2013-12-06 06:47:00,
2013-12-06 00:52:00,40.4,37.4,29.97,NW,326,7.4,7.4,89,0.00,CLR,,0.00,WeatherDisplay:10.37,2013-12-06 06:52:00,
2013-12-06 00:57:00,40.1,37.1,29.97,NW,307,12.7,12.7,89,0.00,CLR,,0.00,WeatherDisplay:10.37,2013-12-06 06:57:00,
2013-12-06 01:02:00,39.8,36.8,29.96,North,356,10.4,10.4,89,0.00,CLR,,0.00,WeatherDisplay:10.37,2013-12-06 07:02:00,
2013-12-06 01:07:00,39.7,36.7,29.97,NNW,329,5.8,5.8,89,0.00,CLR,,0.00,WeatherDisplay:10.37,2013-12-06 07:07:00,
2013-12-06 01:12:00,39.7,36.7,29.97,NNW,333,9.2,9.2,89,0.00,CLR,,0.00,WeatherDisplay:10.37,2013-12-06 07:12:00,
2013-12-06 01:17:00,39.6,36.6,29.97,NW,323,10.4,10.4,89,0.00,CLR,,0.00,WeatherDisplay:10.37,2013-12-06 07:17:00,
2013-12-06 01:22:00,39.6,36.9,29.97,NNW,339,10.4,10.4,90,0.00,CLR,,0.00,WeatherDisplay:10.37,2013-12-06 07:22:00,
2013-12-06 01:27:00,39.4,36.7,29.97,NW,325,6.9,6.9,90,0.00,CLR,,0.00,WeatherDisplay:10.37,2013-12-06 07:27:00,
2013-12-06 01:32:00,39.3,36.6,29.97,NNW,339,5.8,5.8,90,0.00,CLR,,0.00,WeatherDisplay:10.37,2013-12-06 07:32:00,
2013-12-06 01:37:00,39.2,36.5,29.97,North,352,11.5,11.5,90,0.00,CLR,,0.00,WeatherDisplay:10.37,2013-12-06 07:37:00,
2013-12-06 01:42:00,39.2,36.5,29.97,NW,326,12.7,12.7,90,0.00,CLR,,0.00,WeatherDisplay:10.37,2013-12-06 07:42:00,
2013-12-06 01:47:00,39.2,36.5,29.97,North,1,9.2,9.2,90,0.00,CLR,,0.00,WeatherDisplay:10.37,2013-12-06 07:47:00,
2013-12-06 01:52:00,39.2,36.8,29.97,NNW,330,10.4,10.4,91,0.00,CLR,,0.00,WeatherDisplay:10.37,2013-12-06 07:52:00,
2013-12-06 01:57:00,39.2,36.8,29.97,North,0,10.4,10.4,91,0.00,CLR,,0.00,WeatherDisplay:10.37,2013-12-06 07:57:00,
2013-12-06 02:02:00,39.1,36.7,29.97,WNW,296,10.4,10.4,91,0.00,CLR,,0.00,WeatherDisplay:10.37,2013-12-06 08:02:00,
2013-12-06 02:07:00,39.0,36.6,29.98,NNW,344,11.5,11.5,91,0.00,CLR,,0.00,WeatherDisplay:10.37,2013-12-06 08:07:00,
2013-12-06 02:12:00,39.0,36.6,29.98,WNW,299,13.8,13.8,91,0.00,CLR,,0.00,WeatherDisplay:10.37,2013-12-06 08:12:00,
2013-12-06 02:17:00,39.0,36.6,29.98,NNW,329,6.9,6.9,91,0.00,CLR,,0.00,WeatherDisplay:10.37,2013-12-06 08:17:00,
2013-12-06 02:22:00,39.0,36.6,29.99,NW,311,9.2,9.2,91,0.00,CLR,,0.00,WeatherDisplay:10.37,2013-12-06 08:22:00,
2013-12-06 02:27:00,39.0,36.6,29.98,North,359,9.2,9.2,91,0.00,CLR,,0.00,WeatherDisplay:10.37,2013-12-06 08:27:00,
2013-12-06 02:32:00,39.0,36.6,29.99,North,359,10.4,10.4,91,0.00,CLR,,0.00,WeatherDisplay:10.37,2013-12-06 08:32:00,
2013-12-06 02:37:00,39.0,36.6,29.99,NNW,327,9.2,9.2,91,0.00,CLR,,0.00,WeatherDisplay:10.37,2013-12-06 08:37:00,
2013-12-06 02:42:00,39.0,36.6,29.99,WNW,290,10.4,10.4,91,0.00,CLR,,0.00,WeatherDisplay:10.37,2013-12-06 08:42:00,
2013-12-06 02:47:00,38.9,36.5,29.99,North,352,13.8,13.8,91,0.00,CLR,,0.00,WeatherDisplay:10.37,2013-12-06 08:47:00,
2013-12-06 02:52:00,38.9,36.5,29.99,NNW,340,11.5,11.5,91,0.00,CLR,,0.00,WeatherDisplay:10.37,2013-12-06 08:52:00,
2013-12-06 02:57:00,38.9,36.5,30.00,NW,322,11.5,11.5,91,0.00,CLR,,0.00,WeatherDisplay:10.37,2013-12-06 08:57:00,
2013-12-06 03:02:00,38.9,36.5,30.00,NW,324,8.1,8.1,91,0.00,CLR,,0.00,WeatherDisplay:10.37,2013-12-06 09:02:00,
2013-12-06 03:07:00,38.9,36.5,30.00,NW,319,12.6,12.6,91,0.00,CLR,,0.00,WeatherDisplay:10.37,2013-12-06 09:07:00,
2013-12-06 03:12:00,38.8,36.4,30.01,West,264,12.7,12.7,91,0.00,CLR,,0.00,WeatherDisplay:10.37,2013-12-06 09:12:00,
2013-12-06 03:17:00,38.7,36.3,30.00,NNW,331,11.5,11.5,91,0.00,CLR,,0.00,WeatherDisplay:10.37,2013-12-06 09:17:00,
2013-12-06 03:22:00,38.6,36.2,30.00,NW,316,11.5,11.5,91,0.00,CLR,,0.00,WeatherDisplay:10.37,2013-12-06 09:22:00,
2013-12-06 03:27:00,38.7,36.3,30.00,North,1,6.9,6.9,91,0.00,CLR,,0.00,WeatherDisplay:10.37,2013-12-06 09:27:00,
2013-12-06 03:32:00,38.8,36.4,30.00,NNW,329,10.4,10.4,91,0.00,CLR,,0.00,WeatherDisplay:10.37,2013-12-06 09:32:00,
2013-12-06 03:37:00,38.8,36.1,30.00,NW,316,12.7,12.7,90,0.00,CLR,,0.00,WeatherDisplay:10.37,2013-12-06 09:37:00,
2013-12-06 03:42:00,38.8,36.1,30.00,NW,313,10.4,10.4,90,0.00,CLR,,0.00,WeatherDisplay:10.37,2013-12-06 09:42:00,
2013-12-06 03:47:00,38.6,35.9,30.00,NW,317,10.4,10.4,90,0.00,CLR,,0.00,WeatherDisplay:10.37,2013-12-06 09:47:00,
2013-12-06 03:52:00,38.7,36.0,30.00,North,351,8.1,8.1,90,0.00,CLR,,0.00,WeatherDisplay:10.37,2013-12-06 09:52:00,
2013-12-06 03:57:00,38.6,35.9,30.00,NNW,335,5.8,5.8,90,0.00,CLR,,0.00,WeatherDisplay:10.37,2013-12-06 09:57:00,
2013-12-06 04:02:00,38.6,35.9,30.00,NW,309,5.8,5.8,90,0.00,CLR,,0.00,WeatherDisplay:10.37,2013-12-06 10:02:00,
2013-12-06 04:07:00,38.6,35.9,30.00,North,352,11.5,11.5,90,0.00,CLR,,0.00,WeatherDisplay:10.37,2013-12-06 10:07:00,
2013-12-06 04:12:00,38.6,35.9,29.99,NW,307,9.2,9.2,90,0.00,CLR,,0.00,WeatherDisplay:10.37,2013-12-06 10:12:00,
2013-12-06 04:17:00,38.6,35.9,29.99,NW,319,6.9,6.9,90,0.00,CLR,,0.00,WeatherDisplay:10.37,2013-12-06 10:17:00,
2013-12-06 04:22:00,38.5,35.8,29.99,NW,318,4.6,4.6,90,0.00,CLR,,0.00,WeatherDisplay:10.37,2013-12-06 10:22:00,
2013-12-06 04:27:00,38.5,35.8,30.00,NNW,338,9.2,9.2,90,0.00,CLR,,0.00,WeatherDisplay:10.37,2013-12-06 10:27:00,
2013-12-06 04:32:00,38.5,35.5,30.00,North,354,8.1,8.1,89,0.00,CLR,,0.00,WeatherDisplay:10.37,2013-12-06 10:32:00,
2013-12-06 04:37:00,38.6,35.6,30.00,North,355,6.3,6.3,89,0.00,CLR,,0.00,WeatherDisplay:10.37,2013-12-06 10:37:00,
2013-12-06 04:42:00,38.6,35.6,30.01,WNW,299,7.4,7.4,89,0.00,CLR,,0.00,WeatherDisplay:10.37,2013-12-06 10:42:00,
2013-12-06 04:47:00,38.5,35.5,30.01,WNW,298,6.9,6.9,89,0.00,CLR,,0.00,WeatherDisplay:10.37,2013-12-06 10:47:00,
2013-12-06 04:52:00,38.5,35.5,30.01,NW,316,12.7,12.7,89,0.00,CLR,,0.00,WeatherDisplay:10.37,2013-12-06 10:52:00,
2013-12-06 04:57:00,38.5,35.5,30.01,North,1,6.9,6.9,89,0.00,CLR,,0.00,WeatherDisplay:10.37,2013-12-06 10:57:00,
2013-12-06 05:02:00,38.5,35.5,30.01,North,359,9.2,9.2,89,0.00,CLR,,0.00,WeatherDisplay:10.37,2013-12-06 11:02:00,
2013-12-06 05:07:00,38.5,35.5,30.01,NNE,16,6.9,6.9,89,0.00,CLR,,0.00,WeatherDisplay:10.37,2013-12-06 11:07:00,
2013-12-06 05:12:00,38.6,35.4,30.02,WNW,297,10.4,10.4,88,0.00,CLR,,0.00,WeatherDisplay:10.37,2013-12-06 11:12:00,
2013-12-06 05:17:00,38.6,35.4,30.02,North,355,5.8,5.8,88,0.00,CLR,,0.00,WeatherDisplay:10.37,2013-12-06 11:17:00,
2013-12-06 05:22:00,38.6,35.4,30.01,North,351,5.8,5.8,88,0.00,CLR,,0.00,WeatherDisplay:10.37,2013-12-06 11:22:00,
2013-12-06 05:27:00,38.7,35.5,30.02,NW,318,12.7,12.7,88,0.00,CLR,,0.00,WeatherDisplay:10.37,2013-12-06 11:27:00,
2013-12-06 05:32:00,38.7,35.7,30.02,North,11,6.9,6.9,89,0.00,CLR,,0.00,WeatherDisplay:10.37,2013-12-06 11:32:00,
2013-12-06 05:37:00,38.5,35.3,30.02,NNE,22,11.5,11.5,88,0.00,CLR,,0.00,WeatherDisplay:10.37,2013-12-06 11:37:00,
2013-12-06 05:42:00,38.5,35.5,30.02,NNW,342,6.9,6.9,89,0.00,CLR,,0.00,WeatherDisplay:10.37,2013-12-06 11:42:00,
2013-12-06 05:47:00,38.5,35.5,30.02,North,351,10.4,10.4,89,0.00,CLR,,0.00,WeatherDisplay:10.37,2013-12-06 11:47:00,
2013-12-06 05:52:00,38.5,35.3,30.03,North,349,11.5,11.5,88,0.00,CLR,,0.00,WeatherDisplay:10.37,2013-12-06 11:52:00,
2013-12-06 05:57:00,38.4,35.2,30.02,NW,323,11.5,11.5,88,0.00,CLR,,0.00,WeatherDisplay:10.37,2013-12-06 11:57:00,
2013-12-06 06:02:00,38.4,35.2,30.03,NW,321,10.4,10.4,88,0.00,CLR,,0.00,WeatherDisplay:10.37,2013-12-06 12:02:00,
2013-12-06 06:07:00,38.4,35.4,30.03,NE,44,8.1,8.1,89,0.00,CLR,,0.00,WeatherDisplay:10.37,2013-12-06 12:07:00,
2013-12-06 06:12:00,38.5,35.3,30.04,NW,312,10.4,10.4,88,0.00,CLR,,0.00,WeatherDisplay:10.37,2013-12-06 12:12:00,
2013-12-06 06:17:00,38.4,35.4,30.04,NW,311,15.0,15.0,89,0.00,CLR,,0.00,WeatherDisplay:10.37,2013-12-06 12:17:00,
2013-12-06 06:22:00,38.2,35.2,30.04,NW,323,13.8,13.8,89,0.00,CLR,,0.00,WeatherDisplay:10.37,2013-12-06 12:22:00,
2013-12-06 06:27:00,38.2,35.2,30.04,North,349,17.3,17.3,89,0.00,CLR,,0.00,WeatherDisplay:10.37,2013-12-06 12:27:00,
2013-12-06 06:32:00,38.1,35.1,30.05,NNW,342,11.5,11.5,89,0.00,CLR,,0.00,WeatherDisplay:10.37,2013-12-06 12:32:00,
2013-12-06 06:37:00,38.1,35.4,30.05,WNW,295,9.2,9.2,90,0.00,CLR,,0.00,WeatherDisplay:10.37,2013-12-06 12:37:00,
2013-12-06 06:42:00,38.1,35.4,30.05,WNW,300,12.7,12.7,90,0.00,CLR,,0.00,WeatherDisplay:10.37,2013-12-06 12:42:00,
2013-12-06 06:47:00,38.0,35.3,30.06,NNW,338,5.8,5.8,90,0.00,CLR,,0.00,WeatherDisplay:10.37,2013-12-06 12:47:00,
2013-12-06 06:52:00,37.9,35.2,30.06,NNW,346,11.5,11.5,90,0.00,CLR,,0.00,WeatherDisplay:10.37,2013-12-06 12:52:00,
2013-12-06 06:57:00,37.8,35.4,30.06,NW,314,17.3,17.3,91,0.00,CLR,,0.00,WeatherDisplay:10.37,2013-12-06 12:57:00,
2013-12-06 07:02:00,37.6,35.2,30.07,WNW,298,11.5,11.5,91,0.00,CLR,,0.00,WeatherDisplay:10.37,2013-12-06 13:02:00,
2013-12-06 07:07:00,37.7,35.3,30.07,NNE,26,9.2,9.2,91,0.00,CLR,,0.00,WeatherDisplay:10.37,2013-12-06 13:07:00,
2013-12-06 07:12:00,37.7,35.3,30.07,NNW,335,10.4,10.4,91,0.00,CLR,,0.00,WeatherDisplay:10.37,2013-12-06 13:12:00,
2013-12-06 07:17:00,37.6,35.2,30.07,North,356,16.1,16.1,91,0.00,CLR,,0.00,WeatherDisplay:10.37,2013-12-06 13:17:00,
2013-12-06 07:22:00,37.5,35.1,30.08,NW,318,10.4,10.4,91,0.00,CLR,,0.00,WeatherDisplay:10.37,2013-12-06 13:22:00,
2013-12-06 07:27:00,37.4,35.0,30.08,WNW,286,12.7,12.7,91,0.00,CLR,,0.00,WeatherDisplay:10.37,2013-12-06 13:27:00,
2013-12-06 07:32:00,37.3,34.9,30.08,NNW,336,13.8,13.8,91,0.00,CLR,,0.00,WeatherDisplay:10.37,2013-12-06 13:32:00,
2013-12-06 07:37:00,37.3,34.9,30.08,North,1,10.4,10.4,91,0.00,CLR,,0.00,WeatherDisplay:10.37,2013-12-06 13:37:00,
2013-12-06 07:42:00,37.3,34.9,30.08,NNW,345,10.4,10.4,91,0.00,CLR,,0.00,WeatherDisplay:10.37,2013-12-06 13:42:00,
2013-12-06 07:47:00,37.3,34.9,30.08,NNW,344,12.7,12.7,91,0.00,CLR,,0.00,WeatherDisplay:10.37,2013-12-06 13:47:00,
2013-12-06 07:52:00,37.4,35.0,30.09,WNW,300,10.4,10.4,91,0.00,CLR,,0.00,WeatherDisplay:10.37,2013-12-06 13:52:00,
2013-12-06 07:57:00,37.4,35.0,30.09,North,0,15.0,15.0,91,0.00,CLR,,0.00,WeatherDisplay:10.37,2013-12-06 13:57:00,
2013-12-06 08:02:00,37.4,35.0,30.10,NW,326,11.5,11.5,91,0.00,CLR,,0.00,WeatherDisplay:10.37,2013-12-06 14:02:00,
2013-12-06 08:07:00,37.4,35.0,30.10,NNW,340,12.7,12.7,91,0.00,CLR,,0.00,WeatherDisplay:10.37,2013-12-06 14:07:00,
2013-12-06 08:12:00,37.5,35.1,30.10,NW,322,13.8,13.8,91,0.00,CLR,,0.00,WeatherDisplay:10.37,2013-12-06 14:12:00,
2013-12-06 08:17:00,37.6,35.2,30.11,WNW,298,17.3,17.3,91,0.00,CLR,,0.00,WeatherDisplay:10.37,2013-12-06 14:17:00,
2013-12-06 08:22:00,37.4,35.0,30.11,NW,306,11.5,11.5,91,0.00,CLR,,0.00,WeatherDisplay:10.37,2013-12-06 14:22:00,
2013-12-06 08:27:00,37.5,35.1,30.11,North,349,6.9,6.9,91,0.00,CLR,,0.00,WeatherDisplay:10.37,2013-12-06 14:27:00,
2013-12-06 08:32:00,37.3,34.9,30.12,NNW,348,17.3,17.3,91,0.00,CLR,,0.00,WeatherDisplay:10.37,2013-12-06 14:32:00,
2013-12-06 08:37:00,37.1,35.0,30.11,NW,317,10.4,10.4,92,0.00,CLR,,0.00,WeatherDisplay:10.37,2013-12-06 14:37:00,
2013-12-06 08:42:00,36.9,34.8,30.12,NNW,333,11.5,11.5,92,0.00,CLR,,0.00,WeatherDisplay:10.37,2013-12-06 14:42:00,
2013-12-06 08:47:00,36.7,34.6,30.12,North,356,12.7,12.7,92,0.00,CLR,,0.00,WeatherDisplay:10.37,2013-12-06 14:47:00,
2013-12-06 08:52:00,36.6,34.5,30.13,North,352,12.7,12.7,92,0.00,CLR,,0.00,WeatherDisplay:10.37,2013-12-06 14:52:00,
2013-12-06 08:57:00,36.5,34.4,30.14,NNW,345,15.0,15.0,92,0.00,CLR,,0.00,WeatherDisplay:10.37,2013-12-06 14:57:00,
2013-12-06 09:02:00,36.6,34.5,30.14,North,349,13.8,13.8,92,0.00,CLR,,0.00,WeatherDisplay:10.37,2013-12-06 15:02:00,
2013-12-06 09:07:00,36.6,34.2,30.14,NW,321,12.7,12.7,91,0.00,CLR,,0.00,WeatherDisplay:10.37,2013-12-06 15:07:00,
2013-12-06 09:12:00,36.7,34.3,30.14,North,359,16.1,16.1,91,0.00,CLR,,0.00,WeatherDisplay:10.37,2013-12-06 15:12:00,
2013-12-06 09:17:00,36.8,34.4,30.14,NW,320,11.5,11.5,91,0.00,CLR,,0.00,WeatherDisplay:10.37,2013-12-06 15:17:00,
2013-12-06 09:22:00,36.8,34.4,30.14,North,10,11.5,11.5,91,0.00,CLR,,0.00,WeatherDisplay:10.37,2013-12-06 15:22:00,
2013-12-06 09:27:00,36.9,34.5,30.15,NNW,334,18.4,18.4,91,0.00,CLR,,0.00,WeatherDisplay:10.37,2013-12-06 15:27:00,
2013-12-06 09:32:00,37.0,34.6,30.16,North,351,11.5,11.5,91,0.00,CLR,,0.00,WeatherDisplay:10.37,2013-12-06 15:32:00,
2013-12-06 09:37:00,37.2,34.8,30.16,NNW,344,17.3,17.3,91,0.00,CLR,,0.00,WeatherDisplay:10.37,2013-12-06 15:37:00,
2013-12-06 09:42:00,37.4,35.0,30.16,North,352,13.8,13.8,91,0.00,CLR,,0.00,WeatherDisplay:10.37,2013-12-06 15:42:00,
2013-12-06 09:47:00,37.3,34.9,30.16,North,1,13.8,13.8,91,0.00,CLR,,0.00,WeatherDisplay:10.37,2013-12-06 15:47:00,
2013-12-06 09:52:00,37.4,35.0,30.17,North,359,6.9,7.2,91,0.00,CLR,,0.00,WeatherDisplay:10.37,2013-12-06 15:52:00,
2013-12-06 09:57:00,37.5,35.1,30.17,NNW,345,15.0,15.0,91,0.00,CLR,,0.00,WeatherDisplay:10.37,2013-12-06 15:57:00,
2013-12-06 10:02:00,37.7,35.3,30.17,NW,310,12.7,12.7,91,0.00,CLR,,0.00,WeatherDisplay:10.37,2013-12-06 16:02:00,
2013-12-06 10:07:00,38.0,35.3,30.17,NNW,343,17.3,17.3,90,0.00,CLR,,0.00,WeatherDisplay:10.37,2013-12-06 16:07:00,
2013-12-06 10:12:00,38.2,35.5,30.17,NW,311,10.4,10.4,90,0.00,CLR,,0.00,WeatherDisplay:10.37,2013-12-06 16:12:00,
2013-12-06 10:17:00,38.5,35.8,30.17,North,359,18.4,18.4,90,0.00,CLR,,0.00,WeatherDisplay:10.37,2013-12-06 16:17:00,
2013-12-06 10:22:00,38.6,35.9,30.17,NW,316,15.0,15.0,90,0.00,CLR,,0.00,WeatherDisplay:10.37,2013-12-06 16:22:00,
2013-12-06 10:27:00,38.6,35.6,30.17,NNW,339,17.3,17.3,89,0.00,CLR,,0.00,WeatherDisplay:10.37,2013-12-06 16:27:00,
2013-12-06 10:32:00,38.9,35.9,30.17,North,356,17.3,17.3,89,0.00,CLR,,0.00,WeatherDisplay:10.37,2013-12-06 16:32:00,
2013-12-06 10:37:00,39.1,36.1,30.18,NNE,14,13.8,13.8,89,0.00,CLR,,0.00,WeatherDisplay:10.37,2013-12-06 16:37:00,
2013-12-06 10:42:00,39.3,36.3,30.18,NNW,329,12.7,12.7,89,0.00,CLR,,0.00,WeatherDisplay:10.37,2013-12-06 16:42:00,
2013-12-06 10:47:00,39.6,36.6,30.18,NW,308,12.7,12.7,89,0.00,CLR,,0.00,WeatherDisplay:10.37,2013-12-06 16:47:00,
2013-12-06 10:52:00,39.9,36.6,30.18,NNW,341,8.1,8.1,88,0.00,CLR,,0.00,WeatherDisplay:10.37,2013-12-06 16:52:00,
2013-12-06 10:57:00,40.0,36.7,30.19,WNW,303,11.5,11.5,88,0.00,CLR,,0.00,WeatherDisplay:10.37,2013-12-06 16:57:00,
2013-12-06 11:02:00,40.1,36.8,30.18,North,349,16.1,16.1,88,0.00,CLR,,0.00,WeatherDisplay:10.37,2013-12-06 17:02:00,
2013-12-06 11:07:00,40.1,36.8,30.19,North,351,17.3,17.3,88,0.00,CLR,,0.00,WeatherDisplay:10.37,2013-12-06 17:07:00,
2013-12-06 11:12:00,40.3,37.0,30.18,NW,307,18.4,18.4,88,0.00,CLR,,0.00,WeatherDisplay:10.37,2013-12-06 17:12:00,
2013-12-06 11:17:00,40.4,37.1,30.18,NW,310,12.7,12.7,88,0.00,CLR,,0.00,WeatherDisplay:10.37,2013-12-06 17:17:00,
2013-12-06 11:22:00,40.5,37.2,30.18,NW,307,12.7,12.7,88,0.00,CLR,,0.00,WeatherDisplay:10.37,2013-12-06 17:22:00,
2013-12-06 11:27:00,40.5,36.9,30.19,NW,308,13.8,13.8,87,0.00,CLR,,0.00,WeatherDisplay:10.37,2013-12-06 17:27:00,
2013-12-06 11:32:00,40.6,37.0,30.19,NW,317,16.1,16.1,87,0.00,CLR,,0.00,WeatherDisplay:10.37,2013-12-06 17:32:00,
2013-12-06 11:37:00,40.7,37.1,30.18,North,353,12.7,12.7,87,0.00,CLR,,0.00,WeatherDisplay:10.37,2013-12-06 17:37:00,
2013-12-06 11:42:00,41.0,37.4,30.19,NNW,333,6.9,7.0,87,0.00,CLR,,0.00,WeatherDisplay:10.37,2013-12-06 17:42:00,
2013-12-06 11:47:00,41.1,37.2,30.19,WNW,284,13.8,13.8,86,0.00,CLR,,0.00,WeatherDisplay:10.37,2013-12-06 17:47:00,
2013-12-06 11:52:00,41.3,37.4,30.18,NW,323,13.8,13.8,86,0.00,CLR,,0.00,WeatherDisplay:10.37,2013-12-06 17:52:00,
2013-12-06 11:57:00,41.5,37.6,30.18,NW,307,16.1,16.1,86,0.00,CLR,,0.00,WeatherDisplay:10.37,2013-12-06 17:57:00,
2013-12-06 12:02:00,41.7,37.8,30.17,North,355,17.3,17.3,86,0.00,CLR,,0.00,WeatherDisplay:10.37,2013-12-06 18:02:00,
2013-12-06 12:07:00,41.8,37.6,30.17,NNW,333,13.8,13.8,85,0.00,CLR,,0.00,WeatherDisplay:10.37,2013-12-06 18:07:00,
2013-12-06 12:12:00,42.0,37.8,30.17,NNW,332,11.5,11.5,85,0.00,CLR,,0.00,WeatherDisplay:10.37,2013-12-06 18:12:00,
2013-12-06 12:17:00,42.2,37.7,30.17,NNW,338,13.8,13.8,84,0.00,CLR,,0.00,WeatherDisplay:10.37,2013-12-06 18:17:00,
2013-12-06 12:22:00,42.4,37.9,30.17,WNW,297,12.7,12.7,84,0.00,CLR,,0.00,WeatherDisplay:10.37,2013-12-06 18:22:00,
2013-12-06 12:27:00,42.7,38.2,30.17,NNW,338,11.6,11.6,84,0.00,CLR,,0.00,WeatherDisplay:10.37,2013-12-06 18:27:00,
2013-12-06 12:32:00,42.7,38.2,30.17,NW,310,13.7,13.7,84,0.00,CLR,,0.00,WeatherDisplay:10.37,2013-12-06 18:32:00,
2013-12-06 12:37:00,42.8,38.0,30.17,NNW,340,15.0,15.0,83,0.00,CLR,,0.00,WeatherDisplay:10.37,2013-12-06 18:37:00,
2013-12-06 12:42:00,42.8,37.7,30.17,NW,318,13.8,13.8,82,0.00,CLR,,0.00,WeatherDisplay:10.37,2013-12-06 18:42:00,
2013-12-06 12:47:00,42.9,37.8,30.17,NNW,333,13.8,13.8,82,0.00,CLR,,0.00,WeatherDisplay:10.37,2013-12-06 18:47:00,
2013-12-06 12:52:00,43.2,38.1,30.16,North,1,15.0,15.0,82,0.00,CLR,,0.00,WeatherDisplay:10.37,2013-12-06 18:52:00,
2013-12-06 12:57:00,43.3,38.2,30.16,ENE,66,18.4,18.4,82,0.00,CLR,,0.00,WeatherDisplay:10.37,2013-12-06 18:57:00,
2013-12-06 13:02:00,43.7,38.6,30.16,West,271,16.1,16.1,82,0.00,CLR,,0.00,WeatherDisplay:10.37,2013-12-06 19:02:00,
2013-12-06 13:07:00,43.8,38.7,30.16,North,359,15.0,15.0,82,0.00,CLR,,0.00,WeatherDisplay:10.37,2013-12-06 19:07:00,
2013-12-06 13:12:00,43.8,38.3,30.15,West,281,17.3,17.3,81,0.00,CLR,,0.00,WeatherDisplay:10.37,2013-12-06 19:12:00,
2013-12-06 13:17:00,43.8,38.3,30.15,NNE,12,15.0,15.0,81,0.00,CLR,,0.00,WeatherDisplay:10.37,2013-12-06 19:17:00,
2013-12-06 13:22:00,43.8,38.3,30.15,NNW,341,13.8,13.8,81,0.00,CLR,,0.00,WeatherDisplay:10.37,2013-12-06 19:22:00,
2013-12-06 13:27:00,43.6,38.2,30.16,North,1,17.3,17.3,81,0.00,CLR,,0.00,WeatherDisplay:10.37,2013-12-06 19:27:00,
2013-12-06 13:32:00,43.6,38.2,30.15,North,1,12.7,12.7,81,0.00,CLR,,0.00,WeatherDisplay:10.37,2013-12-06 19:32:00,
2013-12-06 13:37:00,43.8,38.3,30.15,NNW,337,17.3,17.3,81,0.00,CLR,,0.00,WeatherDisplay:10.37,2013-12-06 19:37:00,
2013-12-06 13:42:00,43.8,38.3,30.15,NNE,18,13.8,13.8,81,0.00,CLR,,0.00,WeatherDisplay:10.37,2013-12-06 19:42:00,
2013-12-06 13:47:00,43.9,38.4,30.14,North,1,13.8,13.8,81,0.00,CLR,,0.00,WeatherDisplay:10.37,2013-12-06 19:47:00,
2013-12-06 13:52:00,44.0,38.5,30.14,NNW,345,16.1,16.1,81,0.00,CLR,,0.00,WeatherDisplay:10.37,2013-12-06 19:52:00,
2013-12-06 13:57:00,44.2,38.7,30.14,NNW,348,10.4,10.4,81,0.00,CLR,,0.00,WeatherDisplay:10.37,2013-12-06 19:57:00,
2013-12-06 14:02:00,44.5,38.7,30.14,NNW,332,18.4,18.4,80,0.00,CLR,,0.00,WeatherDisplay:10.37,2013-12-06 20:02:00,
2013-12-06 14:07:00,44.7,38.9,30.14,NW,323,12.7,12.7,80,0.00,CLR,,0.00,WeatherDisplay:10.37,2013-12-06 20:07:00,
2013-12-06 14:12:00,44.3,38.5,30.14,NNW,338,12.7,12.7,80,0.00,CLR,,0.00,WeatherDisplay:10.37,2013-12-06 20:12:00,
2013-12-06 14:17:00,44.2,38.4,30.14,NNE,22,12.7,12.7,80,0.00,CLR,,0.00,WeatherDisplay:10.37,2013-12-06 20:17:00,
2013-12-06 14:22:00,44.4,38.6,30.14,NNW,345,18.4,18.4,80,0.00,CLR,,0.00,WeatherDisplay:10.37,2013-12-06 20:22:00,
2013-12-06 14:27:00,44.6,38.8,30.14,NNW,346,9.2,9.2,80,0.00,CLR,,0.00,WeatherDisplay:10.37,2013-12-06 20:27:00,
2013-12-06 14:32:00,45.1,39.3,30.14,NNW,347,10.4,10.4,80,0.00,CLR,,0.00,WeatherDisplay:10.37,2013-12-06 20:32:00,
2013-12-06 14:37:00,45.5,39.4,30.14,NNE,17,12.7,12.7,79,0.00,CLR,,0.00,WeatherDisplay:10.37,2013-12-06 20:37:00,
2013-12-06 14:42:00,45.5,39.0,30.14,North,352,15.0,15.0,78,0.00,CLR,,0.00,WeatherDisplay:10.37,2013-12-06 20:42:00,
2013-12-06 14:47:00,45.8,39.7,30.14,North,1,6.9,6.9,79,0.00,CLR,,0.00,WeatherDisplay:10.37,2013-12-06 20:47:00,
2013-12-06 14:52:00,46.0,39.5,30.14,NNW,348,17.3,17.3,78,0.00,CLR,,0.00,WeatherDisplay:10.37,2013-12-06 20:52:00,
2013-12-06 14:57:00,46.3,39.8,30.14,WNW,287,11.5,11.5,78,0.00,CLR,,0.00,WeatherDisplay:10.37,2013-12-06 20:57:00,
2013-12-06 15:02:00,46.4,39.6,30.14,NNW,336,12.7,12.7,77,0.00,CLR,,0.00,WeatherDisplay:10.37,2013-12-06 21:02:00,
2013-12-06 15:07:00,46.3,39.5,30.14,NW,316,11.5,11.5,77,0.00,CLR,,0.00,WeatherDisplay:10.37,2013-12-06 21:07:00,
2013-12-06 15:12:00,46.4,39.9,30.14,NNW,333,18.4,18.4,78,0.00,CLR,,0.00,WeatherDisplay:10.37,2013-12-06 21:12:00,
2013-12-06 15:17:00,46.5,39.7,30.15,North,1,16.1,16.1,77,0.00,CLR,,0.00,WeatherDisplay:10.37,2013-12-06 21:17:00,
2013-12-06 15:22:00,46.2,39.4,30.15,North,359,11.5,11.5,77,0.00,CLR,,0.00,WeatherDisplay:10.37,2013-12-06 21:22:00,
2013-12-06 15:27:00,46.2,39.4,30.14,North,350,15.0,15.0,77,0.00,CLR,,0.00,WeatherDisplay:10.37,2013-12-06 21:27:00,
2013-12-06 15:32:00,46.3,39.5,30.15,North,349,13.8,13.8,77,0.00,CLR,,0.00,WeatherDisplay:10.37,2013-12-06 21:32:00,
2013-12-06 15:37:00,46.3,39.5,30.16,NNE,20,16.1,16.1,77,0.00,CLR,,0.00,WeatherDisplay:10.37,2013-12-06 21:37:00,
2013-12-06 15:42:00,46.3,39.5,30.16,North,0,10.4,10.4,77,0.00,CLR,,0.00,WeatherDisplay:10.37,2013-12-06 21:42:00,
2013-12-06 15:47:00,46.1,39.3,30.16,North,359,10.4,10.4,77,0.00,CLR,,0.00,WeatherDisplay:10.37,2013-12-06 21:47:00,
2013-12-06 15:52:00,45.9,39.4,30.16,West,277,13.8,13.8,78,0.00,CLR,,0.00,WeatherDisplay:10.37,2013-12-06 21:52:00,
2013-12-06 15:57:00,45.9,39.4,30.16,NNE,22,6.9,6.9,78,0.00,CLR,,0.00,WeatherDisplay:10.37,2013-12-06 21:57:00,
2013-12-06 16:02:00,45.8,39.3,30.16,North,1,9.2,9.2,78,0.00,CLR,,0.00,WeatherDisplay:10.37,2013-12-06 22:02:00,
2013-12-06 16:07:00,45.8,39.0,30.16,NNE,15,10.4,10.4,77,0.00,CLR,,0.00,WeatherDisplay:10.37,2013-12-06 22:07:00,
2013-12-06 16:12:00,45.5,38.7,30.17,North,359,11.5,11.5,77,0.00,CLR,,0.00,WeatherDisplay:10.37,2013-12-06 22:12:00,
2013-12-06 16:17:00,45.5,38.7,30.17,North,4,12.7,12.7,77,0.00,CLR,,0.00,WeatherDisplay:10.37,2013-12-06 22:17:00,
2013-12-06 16:22:00,45.5,38.7,30.17,North,355,15.0,15.0,77,0.00,CLR,,0.00,WeatherDisplay:10.37,2013-12-06 22:22:00,
2013-12-06 16:27:00,45.4,38.6,30.17,North,359,12.7,12.7,77,0.00,CLR,,0.00,WeatherDisplay:10.37,2013-12-06 22:27:00,
2013-12-06 16:32:00,45.4,38.6,30.17,North,9,9.2,9.2,77,0.00,CLR,,0.00,WeatherDisplay:10.37,2013-12-06 22:32:00,
2013-12-06 16:37:00,45.3,38.5,30.17,North,350,10.4,10.4,77,0.00,CLR,,0.00,WeatherDisplay:10.37,2013-12-06 22:37:00,
2013-12-06 16:42:00,45.2,38.1,30.17,North,352,12.7,12.7,76,0.00,CLR,,0.00,WeatherDisplay:10.37,2013-12-06 22:42:00,
2013-12-06 16:47:00,45.2,38.4,30.18,North,1,11.5,11.5,77,0.00,CLR,,0.00,WeatherDisplay:10.37,2013-12-06 22:47:00,
2013-12-06 16:52:00,45.2,38.4,30.18,North,349,10.5,10.5,77,0.00,CLR,,0.00,WeatherDisplay:10.37,2013-12-06 22:52:00,
2013-12-06 16:57:00,45.1,38.0,30.19,NNW,337,9.2,9.2,76,0.00,CLR,,0.00,WeatherDisplay:10.37,2013-12-06 22:57:00,
2013-12-06 17:02:00,44.9,37.8,30.19,NNE,20,12.7,12.7,76,0.00,CLR,,0.00,WeatherDisplay:10.37,2013-12-06 23:02:00,
2013-12-06 17:07:00,44.8,38.0,30.19,North,4,13.7,13.7,77,0.00,CLR,,0.00,WeatherDisplay:10.37,2013-12-06 23:07:00,
2013-12-06 17:12:00,44.6,37.8,30.19,North,352,15.0,15.0,77,0.00,CLR,,0.00,WeatherDisplay:10.37,2013-12-06 23:12:00,
2013-12-06 17:17:00,44.5,37.7,30.20,North,1,11.5,11.5,77,0.00,CLR,,0.00,WeatherDisplay:10.37,2013-12-06 23:17:00,
2013-12-06 17:22:00,44.4,37.6,30.20,North,0,13.8,13.8,77,0.00,CLR,,0.00,WeatherDisplay:10.37,2013-12-06 23:22:00,
2013-12-06 17:27:00,44.2,37.4,30.20,NNW,330,17.3,17.3,77,0.00,CLR,,0.00,WeatherDisplay:10.37,2013-12-06 23:27:00,
2013-12-06 17:32:00,44.1,37.7,30.20,North,359,16.1,16.1,78,0.00,CLR,,0.00,WeatherDisplay:10.37,2013-12-06 23:32:00,
2013-12-06 17:37:00,44.0,37.6,30.21,North,0,16.1,16.1,78,0.00,CLR,,0.00,WeatherDisplay:10.37,2013-12-06 23:37:00,
2013-12-06 17:42:00,43.9,37.5,30.22,North,1,13.8,13.8,78,0.00,CLR,,0.00,WeatherDisplay:10.37,2013-12-06 23:42:00,
2013-12-06 17:47:00,44.0,37.6,30.22,NNW,344,15.0,15.0,78,0.00,CLR,,0.00,WeatherDisplay:10.37,2013-12-06 23:47:00,
2013-12-06 17:52:00,43.9,37.5,30.22,North,359,10.4,10.4,78,0.00,CLR,,0.00,WeatherDisplay:10.37,2013-12-06 23:52:00,
2013-12-06 17:57:00,43.9,37.8,30.22,NW,323,15.0,15.0,79,0.00,CLR,,0.00,WeatherDisplay:10.37,2013-12-06 23:57:00,
2013-12-06 18:02:00,43.7,37.3,30.22,NW,323,15.0,15.0,78,0.00,CLR,,0.00,WeatherDisplay:10.37,2013-12-07 00:02:00,
2013-12-06 18:07:00,43.5,37.1,30.22,NNW,335,17.3,17.3,78,0.00,CLR,,0.00,WeatherDisplay:10.37,2013-12-07 00:07:00,
2013-12-06 18:12:00,43.4,37.0,30.22,North,351,15.0,15.0,78,0.00,CLR,,0.00,WeatherDisplay:10.37,2013-12-07 00:12:00,
2013-12-06 18:17:00,43.3,36.9,30.23,WNW,303,11.5,11.5,78,0.00,CLR,,0.00,WeatherDisplay:10.37,2013-12-07 00:17:00,
2013-12-06 18:22:00,43.3,36.9,30.23,NW,324,16.1,16.1,78,0.00,CLR,,0.00,WeatherDisplay:10.37,2013-12-07 00:22:00,
2013-12-06 18:27:00,43.2,36.8,30.23,NNE,13,16.1,16.1,78,0.00,CLR,,0.00,WeatherDisplay:10.37,2013-12-07 00:27:00,
2013-12-06 18:32:00,42.9,36.5,30.23,NW,315,15.0,15.0,78,0.00,CLR,,0.00,WeatherDisplay:10.37,2013-12-07 00:32:00,
2013-12-06 18:37:00,42.7,36.6,30.23,NNW,347,15.0,15.0,79,0.00,CLR,,0.00,WeatherDisplay:10.37,2013-12-07 00:37:00,
2013-12-06 18:42:00,42.5,36.1,30.23,NNW,345,18.4,18.4,78,0.00,CLR,,0.00,WeatherDisplay:10.37,2013-12-07 00:42:00,
2013-12-06 18:47:00,42.4,36.3,30.24,North,359,12.7,12.7,79,0.00,CLR,,0.00,WeatherDisplay:10.37,2013-12-07 00:47:00,
2013-12-06 18:52:00,42.5,36.4,30.24,NE,43,5.8,5.8,79,0.00,CLR,,0.00,WeatherDisplay:10.37,2013-12-07 00:52:00,
2013-12-06 18:57:00,42.3,36.3,30.25,NW,326,12.7,12.7,79,0.00,CLR,,0.00,WeatherDisplay:10.37,2013-12-07 00:57:00,
2013-12-06 19:02:00,41.9,35.5,30.25,NW,326,17.3,17.3,78,0.00,CLR,,0.00,WeatherDisplay:10.37,2013-12-07 01:02:00,
2013-12-06 19:07:00,41.4,35.4,30.25,North,352,16.8,16.8,79,0.00,CLR,,0.00,WeatherDisplay:10.37,2013-12-07 01:07:00,
2013-12-06 19:12:00,41.0,35.3,30.26,North,351,18.4,18.4,80,0.00,CLR,,0.00,WeatherDisplay:10.37,2013-12-07 01:12:00,
2013-12-06 19:17:00,40.7,35.0,30.26,North,350,15.0,15.0,80,0.00,CLR,,0.00,WeatherDisplay:10.37,2013-12-07 01:17:00,
2013-12-06 19:22:00,40.5,35.1,30.26,WNW,299,9.2,9.2,81,0.00,CLR,,0.00,WeatherDisplay:10.37,2013-12-07 01:22:00,
2013-12-06 19:27:00,40.3,34.9,30.26,NNW,329,13.8,13.8,81,0.00,CLR,,0.00,WeatherDisplay:10.37,2013-12-07 01:27:00,
2013-12-06 19:32:00,40.0,34.6,30.27,NW,305,18.4,18.4,81,0.00,CLR,,0.00,WeatherDisplay:10.37,2013-12-07 01:32:00,
2013-12-06 19:37:00,39.7,34.3,30.27,North,9,13.8,13.8,81,0.00,CLR,,0.00,WeatherDisplay:10.37,2013-12-07 01:37:00,
2013-12-06 19:42:00,39.4,34.4,30.28,North,0,17.3,17.3,82,0.00,CLR,,0.00,WeatherDisplay:10.37,2013-12-07 01:42:00,
2013-12-06 19:47:00,39.2,34.2,30.28,North,356,15.0,15.0,82,0.00,CLR,,0.00,WeatherDisplay:10.37,2013-12-07 01:47:00,
2013-12-06 19:52:00,39.0,34.0,30.28,North,358,12.7,12.7,82,0.00,CLR,,0.00,WeatherDisplay:10.37,2013-12-07 01:52:00,
2013-12-06 19:57:00,38.9,33.9,30.29,North,1,13.8,13.8,82,0.00,CLR,,0.00,WeatherDisplay:10.37,2013-12-07 01:57:00,
2013-12-06 20:02:00,38.8,34.1,30.29,NW,322,11.5,11.5,83,0.00,CLR,,0.00,WeatherDisplay:10.37,2013-12-07 02:02:00,
2013-12-06 20:07:00,38.3,33.3,30.29,North,359,15.0,15.0,82,0.00,CLR,,0.00,WeatherDisplay:10.37,2013-12-07 02:07:00,
2013-12-06 20:12:00,38.0,33.0,30.29,NNW,348,13.8,13.8,82,0.00,CLR,,0.00,WeatherDisplay:10.37,2013-12-07 02:12:00,
2013-12-06 20:17:00,37.7,33.0,30.30,North,359,13.8,13.8,83,0.00,CLR,,0.00,WeatherDisplay:10.37,2013-12-07 02:17:00,
2013-12-06 20:22:00,37.4,32.7,30.30,NNW,332,16.1,16.1,83,0.00,CLR,,0.00,WeatherDisplay:10.37,2013-12-07 02:22:00,
2013-12-06 20:27:00,37.1,32.4,30.30,North,3,17.3,17.3,83,0.00,CLR,,0.00,WeatherDisplay:10.37,2013-12-07 02:27:00,
2013-12-06 20:32:00,37.0,32.3,30.31,NNW,345,15.0,15.0,83,0.00,CLR,,0.00,WeatherDisplay:10.37,2013-12-07 02:32:00,
2013-12-06 20:37:00,36.9,32.5,30.31,NNW,344,13.8,13.8,84,0.00,CLR,,0.00,WeatherDisplay:10.37,2013-12-07 02:37:00,
2013-12-06 20:42:00,36.8,32.4,30.31,North,0,12.7,12.7,84,0.00,CLR,,0.00,WeatherDisplay:10.37,2013-12-07 02:42:00,
2013-12-06 20:47:00,36.6,32.2,30.31,North,359,12.7,12.7,84,0.00,CLR,,0.00,WeatherDisplay:10.37,2013-12-07 02:47:00,
2013-12-06 20:52:00,36.5,32.1,30.31,NNW,342,11.6,11.6,84,0.00,CLR,,0.00,WeatherDisplay:10.37,2013-12-07 02:52:00,
2013-12-06 20:57:00,36.5,32.1,30.31,NNW,329,12.7,12.7,84,0.00,CLR,,0.00,WeatherDisplay:10.37,2013-12-07 02:57:00,
2013-12-06 21:02:00,36.4,32.0,30.32,North,0,5.8,5.8,84,0.00,CLR,,0.00,WeatherDisplay:10.37,2013-12-07 03:02:00,
2013-12-06 21:07:00,36.3,32.2,30.32,North,358,9.2,9.2,85,0.00,CLR,,0.00,WeatherDisplay:10.37,2013-12-07 03:07:00,
2013-12-06 21:12:00,36.2,31.8,30.32,NW,321,17.3,17.3,84,0.00,CLR,,0.00,WeatherDisplay:10.37,2013-12-07 03:12:00,
2013-12-06 21:17:00,36.1,31.7,30.32,North,354,11.5,11.5,84,0.00,CLR,,0.00,WeatherDisplay:10.37,2013-12-07 03:17:00,
2013-12-06 21:22:00,36.0,31.9,30.32,North,0,8.1,8.1,85,0.00,CLR,,0.00,WeatherDisplay:10.37,2013-12-07 03:22:00,
2013-12-06 21:27:00,36.0,31.9,30.33,North,0,5.8,5.8,85,0.00,CLR,,0.00,WeatherDisplay:10.37,2013-12-07 03:27:00,
2013-12-06 21:32:00,35.8,31.7,30.33,North,1,11.6,11.6,85,0.00,CLR,,0.00,WeatherDisplay:10.37,2013-12-07 03:32:00,
2013-12-06 21:37:00,35.8,31.7,30.32,North,1,13.8,13.8,85,0.00,CLR,,0.00,WeatherDisplay:10.37,2013-12-07 03:37:00,
2013-12-06 21:42:00,35.7,31.6,30.32,North,1,13.8,13.8,85,0.00,CLR,,0.00,WeatherDisplay:10.37,2013-12-07 03:42:00,
2013-12-06 21:47:00,35.7,31.6,30.32,North,359,10.4,10.4,85,0.00,CLR,,0.00,WeatherDisplay:10.37,2013-12-07 03:47:00,
2013-12-06 21:52:00,35.6,31.5,30.33,NW,325,5.8,5.8,85,0.00,CLR,,0.00,WeatherDisplay:10.37,2013-12-07 03:52:00,
2013-12-06 21:57:00,35.6,31.5,30.33,NNE,25,13.8,13.8,85,0.00,CLR,,0.00,WeatherDisplay:10.37,2013-12-07 03:57:00,
2013-12-06 22:02:00,35.5,31.4,30.33,North,7,9.2,9.2,85,0.00,CLR,,0.00,WeatherDisplay:10.37,2013-12-07 04:02:00,
2013-12-06 22:07:00,35.5,31.4,30.33,WNW,300,10.4,10.4,85,0.00,CLR,,0.00,WeatherDisplay:10.37,2013-12-07 04:07:00,
2013-12-06 22:12:00,35.5,31.4,30.33,NNW,334,16.1,16.1,85,0.00,CLR,,0.00,WeatherDisplay:10.37,2013-12-07 04:12:00,
2013-12-06 22:17:00,35.5,31.4,30.33,NNW,329,8.1,8.1,85,0.00,CLR,,0.00,WeatherDisplay:10.37,2013-12-07 04:17:00,
2013-12-06 22:22:00,35.4,31.3,30.33,NNW,345,9.2,9.2,85,0.00,CLR,,0.00,WeatherDisplay:10.37,2013-12-07 04:22:00,
2013-12-06 22:27:00,35.4,31.3,30.33,NNW,337,10.4,10.4,85,0.00,CLR,,0.00,WeatherDisplay:10.37,2013-12-07 04:27:00,
2013-12-06 22:32:00,35.4,31.3,30.33,North,359,15.0,15.0,85,0.00,CLR,,0.00,WeatherDisplay:10.37,2013-12-07 04:32:00,
2013-12-06 22:37:00,35.4,31.6,30.34,NW,320,9.2,9.2,86,0.00,CLR,,0.00,WeatherDisplay:10.37,2013-12-07 04:37:00,
2013-12-06 22:42:00,35.3,31.5,30.34,North,359,6.9,6.9,86,0.00,CLR,,0.00,WeatherDisplay:10.37,2013-12-07 04:42:00,
2013-12-06 22:47:00,35.2,31.4,30.34,North,350,13.8,13.8,86,0.00,CLR,,0.00,WeatherDisplay:10.37,2013-12-07 04:47:00,
2013-12-06 22:52:00,35.1,31.3,30.33,NW,314,8.1,8.1,86,0.00,CLR,,0.00,WeatherDisplay:10.37,2013-12-07 04:52:00,
2013-12-06 22:57:00,35.0,31.2,30.34,North,356,15.0,15.0,86,0.00,CLR,,0.00,WeatherDisplay:10.37,2013-12-07 04:57:00,
2013-12-06 23:01:00,35.0,31.2,30.34,NW,319,9.4,9.4,86,0.00,CLR,,0.00,WeatherDisplay:10.37,2013-12-07 05:01:00,
2013-12-06 23:02:00,35.0,31.2,30.34,WNW,300,9.2,9.2,86,0.00,CLR,,0.00,WeatherDisplay:10.37,2013-12-07 05:02:00,
2013-12-06 23:07:00,35.0,31.2,30.34,NNW,330,6.9,6.9,86,0.00,CLR,,0.00,WeatherDisplay:10.37,2013-12-07 05:07:00,
2013-12-06 23:12:00,34.9,31.1,30.34,North,0,8.1,8.1,86,0.00,CLR,,0.00,WeatherDisplay:10.37,2013-12-07 05:12:00,
2013-12-06 23:17:00,34.9,31.1,30.34,North,355,6.9,6.9,86,0.00,CLR,,0.00,WeatherDisplay:10.37,2013-12-07 05:17:00,
2013-12-06 23:22:00,34.8,30.8,30.34,North,1,12.7,12.7,85,0.00,CLR,,0.00,WeatherDisplay:10.37,2013-12-07 05:22:00,
2013-12-06 23:27:00,34.7,30.7,30.34,NNW,347,12.7,12.7,85,0.00,CLR,,0.00,WeatherDisplay:10.37,2013-12-07 05:27:00,
2013-12-06 23:32:00,34.7,30.7,30.34,North,0,16.1,16.1,85,0.00,CLR,,0.00,WeatherDisplay:10.37,2013-12-07 05:32:00,
2013-12-06 23:37:00,34.6,30.6,30.34,North,2,13.8,13.8,85,0.00,CLR,,0.00,WeatherDisplay:10.37,2013-12-07 05:37:00,
2013-12-06 23:42:00,34.6,30.6,30.34,North,352,13.8,13.8,85,0.00,CLR,,0.00,WeatherDisplay:10.37,2013-12-07 05:42:00,
2013-12-06 23:47:00,34.5,30.5,30.34,North,352,17.3,17.3,85,0.00,CLR,,0.00,WeatherDisplay:10.37,2013-12-07 05:47:00,
2013-12-06 23:52:00,34.5,30.5,30.34,NNW,333,16.1,16.1,85,0.00,CLR,,0.00,WeatherDisplay:10.37,2013-12-07 05:52:00,
2013-12-06 23:57:00,34.5,30.7,30.34,NW,322,8.1,8.1,86,0.00,CLR,,0.00,WeatherDisplay:10.37,2013-12-07 05:57:00,